< < Back
Terminal Aerodrome Forecast


Current Version              Previous Versions:   1  2  3  4  5  6  7  8  9  

Terminal Aerodrome Forecast

466
FTUS42 KGSP 042328
TAFAND
TAF
KAND 042328Z 0500/0524 22008KT P6SM SCT050
     FM050700 23003KT P6SM SCT020 OVC100
     FM051200 23008KT P6SM VCSH BKN070 PROB30 0512/0515 SHRA
     FM051700 22008G18KT P6SM SCT060 BKN120=

Latest METAR

100
SAUS70 KWBC 051100 RRG
MTRAND
METAR KAND 051056Z AUTO 20006KT 9SM CLR 22/21 A3011 RMK AO2 SLP186
T02220211


USA.gov is the U.S. government's official web portal to all federal, state and local government web resources and services.